createdAt,value
2023-04-18T00:00:38.794Z,31.64
2023-04-18T00:01:38.880Z,30.11
2023-04-18T00:02:39.012Z,29.76
2023-04-18T00:03:39.061Z,30.94
2023-04-18T00:04:38.856Z,29.34
2023-04-18T00:05:38.819Z,29.77
2023-04-18T00:06:38.799Z,29.85
2023-04-18T00:07:38.799Z,28.71
2023-04-18T00:08:38.773Z,30.65
2023-04-18T00:09:38.847Z,30.84
2023-04-18T00:10:38.770Z,31.60
2023-04-18T00:11:38.783Z,31.45
2023-04-18T00:12:38.809Z,30.73
2023-04-18T00:13:38.783Z,30.31
2023-04-18T00:14:38.809Z,28.77
2023-04-18T00:15:38.804Z,29.54
2023-04-18T00:16:38.865Z,31.16
2023-04-18T00:17:38.864Z,32.32
2023-04-18T00:18:38.785Z,30.10
2023-04-18T00:19:38.819Z,33.01
2023-04-18T00:20:38.845Z,28.92
2023-04-18T00:21:38.795Z,29.98
2023-04-18T00:22:38.806Z,31.06
2023-04-18T00:23:38.793Z,30.10
2023-04-18T00:24:38.809Z,30.82
2023-04-18T00:25:38.847Z,30.35
2023-04-18T00:26:38.860Z,29.05
2023-04-18T00:27:38.828Z,29.72
2023-04-18T00:28:38.793Z,30.39
2023-04-18T00:29:38.836Z,28.57
2023-04-18T00:30:38.842Z,27.84
2023-04-18T00:31:38.853Z,26.99
2023-04-18T00:32:38.931Z,29.35
2023-04-18T00:33:38.839Z,28.30
2023-04-18T00:34:38.814Z,29.63
2023-04-18T00:35:38.857Z,27.96
2023-04-18T00:36:38.849Z,28.83
2023-04-18T00:37:38.836Z,31.89
2023-04-18T00:38:38.869Z,30.93
2023-04-18T00:39:38.866Z,32.13
2023-04-18T00:40:38.878Z,27.30
2023-04-18T00:41:38.863Z,26.49
2023-04-18T00:42:38.863Z,27.83
2023-04-18T00:43:38.886Z,28.56
2023-04-18T00:44:38.856Z,27.92
2023-04-18T00:45:38.906Z,30.96
2023-04-18T00:46:39.018Z,28.99
2023-04-18T00:47:38.935Z,29.64
2023-04-18T00:48:38.888Z,29.29
2023-04-18T00:49:38.945Z,27.85
2023-04-18T00:50:38.920Z,31.30
2023-04-18T00:51:38.922Z,27.37
2023-04-18T00:52:38.942Z,30.45
2023-04-18T00:53:38.920Z,28.37
2023-04-18T00:54:38.942Z,28.57
2023-04-18T00:55:38.926Z,28.76
2023-04-18T00:56:38.965Z,27.76
2023-04-18T00:57:38.940Z,30.39
2023-04-18T00:58:38.983Z,29.90
2023-04-18T00:59:39.001Z,28.13
2023-04-18T01:00:39.498Z,30.41
2023-04-18T01:01:39.104Z,27.23
2023-04-18T01:02:39.060Z,27.07
2023-04-18T01:03:39.137Z,28.08
2023-04-18T01:04:39.114Z,26.85
2023-04-18T01:05:39.037Z,28.02
2023-04-18T01:06:39.040Z,28.25
2023-04-18T01:07:39.029Z,26.57
2023-04-18T01:08:39.028Z,27.72
2023-04-18T01:09:39.099Z,29.33
2023-04-18T01:10:39.106Z,28.25
2023-04-18T01:11:39.069Z,29.46
2023-04-18T01:12:39.117Z,27.45
2023-04-18T01:13:39.110Z,28.45
2023-04-18T01:14:39.124Z,26.85
2023-04-18T01:15:39.191Z,28.99
2023-04-18T01:16:39.117Z,28.52
2023-04-18T01:17:39.204Z,27.66
2023-04-18T01:18:39.196Z,28.42
2023-04-18T01:19:39.176Z,30.33
2023-04-18T01:20:39.181Z,28.32
2023-04-18T01:21:39.199Z,27.16
2023-04-18T01:22:39.188Z,28.37
2023-04-18T01:23:39.208Z,27.61
2023-04-18T01:24:39.435Z,27.35
2023-04-18T01:25:39.312Z,27.72
2023-04-18T01:26:39.242Z,29.86
2023-04-18T01:27:39.271Z,27.30
2023-04-18T01:28:39.256Z,26.83
2023-04-18T01:29:39.273Z,26.65
2023-04-18T01:30:39.354Z,28.09
2023-04-18T01:31:39.398Z,27.86
2023-04-18T01:32:39.405Z,29.16
2023-04-18T01:33:39.333Z,27.66
2023-04-18T01:34:39.397Z,27.61
2023-04-18T01:35:39.364Z,26.86
2023-04-18T01:36:39.396Z,26.15
2023-04-18T01:37:39.407Z,29.05
2023-04-18T01:38:39.402Z,27.07
2023-04-18T01:39:39.445Z,29.24
2023-04-18T01:40:39.423Z,27.08
2023-04-18T01:41:39.421Z,27.12
2023-04-18T01:42:39.461Z,27.02
2023-04-18T01:43:39.475Z,27.50
2023-04-18T01:44:39.519Z,26.52
2023-04-18T01:45:39.511Z,28.66
2023-04-18T01:46:39.586Z,27.01
2023-04-18T01:47:39.557Z,28.99
2023-04-18T01:48:39.568Z,27.58
2023-04-18T01:49:39.556Z,26.50
2023-04-18T01:50:39.621Z,26.29
2023-04-18T01:51:39.588Z,25.99
2023-04-18T01:52:39.597Z,29.06
2023-04-18T01:53:39.606Z,28.31
2023-04-18T01:54:39.645Z,29.31
2023-04-18T01:55:39.641Z,27.69
2023-04-18T01:56:39.655Z,27.40
2023-04-18T01:57:39.676Z,30.13
2023-04-18T01:58:39.674Z,27.73
2023-04-18T01:59:39.717Z,28.07
2023-04-18T02:00:39.756Z,27.19
2023-04-18T02:01:39.741Z,28.81
2023-04-18T02:02:39.843Z,28.72
2023-04-18T02:03:39.867Z,29.40
2023-04-18T02:04:39.787Z,26.99
2023-04-18T02:05:39.808Z,28.68
2023-04-18T02:06:39.821Z,29.06
2023-04-18T02:07:39.827Z,25.88
2023-04-18T02:08:39.841Z,27.04
2023-04-18T02:09:39.893Z,28.59
2023-04-18T02:10:39.894Z,28.10
2023-04-18T02:11:39.858Z,28.22
2023-04-18T02:12:39.856Z,28.26
2023-04-18T02:13:39.894Z,26.18
2023-04-18T02:14:39.910Z,26.44
2023-04-18T02:15:39.941Z,26.66
2023-04-18T02:16:39.992Z,26.29
2023-04-18T02:17:39.987Z,30.20
2023-04-18T02:18:39.969Z,25.00
2023-04-18T02:19:39.985Z,26.94
2023-04-18T02:20:40.030Z,26.65
2023-04-18T02:21:40.036Z,26.92
2023-04-18T02:22:40.047Z,29.39
2023-04-18T02:23:40.051Z,29.64
2023-04-18T02:24:40.076Z,26.22
2023-04-18T02:25:40.082Z,27.82
2023-04-18T02:26:40.125Z,26.04
2023-04-18T02:27:40.128Z,26.42
2023-04-18T02:28:40.201Z,27.17
2023-04-18T02:29:40.483Z,27.10
2023-04-18T02:30:40.190Z,27.24
2023-04-18T02:31:40.244Z,27.60
2023-04-18T02:32:40.289Z,26.49
2023-04-18T02:33:40.196Z,27.69
2023-04-18T02:34:40.317Z,26.48
2023-04-18T02:35:40.235Z,29.01
2023-04-18T02:36:40.262Z,27.07
2023-04-18T02:37:40.267Z,25.00
2023-04-18T02:38:40.294Z,28.14
2023-04-18T02:39:40.305Z,26.64
2023-04-18T02:40:40.372Z,27.79
2023-04-18T02:41:40.371Z,27.70
2023-04-18T02:42:40.358Z,26.89
2023-04-18T02:43:40.379Z,29.86
2023-04-18T02:44:40.397Z,28.39
2023-04-18T02:45:40.485Z,26.29
2023-04-18T02:46:40.486Z,26.59
2023-04-18T02:47:51.218Z,28.03
2023-04-18T02:48:41.449Z,28.20
2023-04-18T02:49:40.444Z,28.69
2023-04-18T02:50:40.480Z,28.16
2023-04-18T02:51:40.425Z,28.99
2023-04-18T02:52:40.452Z,27.53
2023-04-18T02:53:40.411Z,27.89
2023-04-18T02:54:40.437Z,29.73
2023-04-18T02:55:40.426Z,27.23
2023-04-18T02:56:40.397Z,27.64
2023-04-18T02:57:40.412Z,27.62
2023-04-18T02:58:40.373Z,27.51
2023-04-18T02:59:40.401Z,26.30
2023-04-18T03:00:40.377Z,27.74
2023-04-18T03:01:40.429Z,28.15
2023-04-18T03:02:40.473Z,27.09
2023-04-18T03:03:40.346Z,29.30
2023-04-18T03:04:40.393Z,29.21
2023-04-18T03:05:40.346Z,28.54
2023-04-18T03:06:40.320Z,28.56
2023-04-18T03:07:40.316Z,25.00
2023-04-18T03:08:40.288Z,27.12
2023-04-18T03:09:40.314Z,25.00
2023-04-18T03:10:40.353Z,27.32
2023-04-18T03:11:40.344Z,28.12
2023-04-18T03:12:40.368Z,28.22
2023-04-18T03:13:40.401Z,27.40
2023-04-18T03:14:40.420Z,28.86
2023-04-18T03:15:40.464Z,29.33
2023-04-18T03:16:40.493Z,28.17
2023-04-18T03:17:40.543Z,27.74
2023-04-18T03:18:40.550Z,28.62
2023-04-18T03:19:40.599Z,26.52
2023-04-18T03:20:40.576Z,28.48
2023-04-18T03:21:40.647Z,26.95
2023-04-18T03:22:40.648Z,29.42
2023-04-18T03:23:40.664Z,26.50
2023-04-18T03:24:40.696Z,25.48
2023-04-18T03:25:40.710Z,28.53
2023-04-18T03:26:40.717Z,29.47
2023-04-18T03:27:40.740Z,26.98
2023-04-18T03:28:40.777Z,26.18
2023-04-18T03:29:40.835Z,26.63
2023-04-18T03:30:40.833Z,25.62
2023-04-18T03:31:40.920Z,27.31
2023-04-18T03:32:40.948Z,26.62
2023-04-18T03:33:40.894Z,29.35
2023-04-18T03:34:40.918Z,26.76
2023-04-18T03:35:40.939Z,29.45
2023-04-18T03:36:40.969Z,27.83
2023-04-18T03:37:40.984Z,27.76
2023-04-18T03:38:41.006Z,27.98
2023-04-18T03:39:41.038Z,27.14
2023-04-18T03:40:41.085Z,26.28
2023-04-18T03:41:41.115Z,28.83
2023-04-18T03:42:41.091Z,26.78
2023-04-18T03:43:41.112Z,28.88
2023-04-18T03:44:41.154Z,26.50
2023-04-18T03:45:41.173Z,25.58
2023-04-18T03:46:41.252Z,26.89
2023-04-18T03:47:41.291Z,28.94
2023-04-18T03:48:41.237Z,27.88
2023-04-18T03:49:41.305Z,28.17
2023-04-18T03:50:41.287Z,25.08
2023-04-18T03:51:41.338Z,27.69
2023-04-18T03:52:41.348Z,27.16
2023-04-18T03:53:41.373Z,29.68
2023-04-18T03:54:41.394Z,29.28
2023-04-18T03:55:41.446Z,28.76
2023-04-18T03:56:41.456Z,27.14
2023-04-18T03:57:41.500Z,27.22
2023-04-18T03:58:41.472Z,26.99
2023-04-18T03:59:41.545Z,26.85
2023-04-18T04:00:41.585Z,25.60
2023-04-18T04:01:41.603Z,28.92
2023-04-18T04:02:41.810Z,28.01
2023-04-18T04:03:41.906Z,28.49
2023-04-18T04:04:41.657Z,30.23
2023-04-18T04:05:41.662Z,27.58
2023-04-18T04:06:41.694Z,26.55
2023-04-18T04:07:41.756Z,27.44
2023-04-18T04:08:41.767Z,28.00
2023-04-18T04:09:41.814Z,27.83
2023-04-18T04:10:41.842Z,29.00
2023-04-18T04:11:41.863Z,28.72
2023-04-18T04:12:41.889Z,29.18
2023-04-18T04:13:41.907Z,29.02
2023-04-18T04:14:41.921Z,27.78
2023-04-18T04:15:41.942Z,28.40
2023-04-18T04:16:41.985Z,25.67
2023-04-18T04:17:42.090Z,26.62
2023-04-18T04:18:42.064Z,28.30
2023-04-18T04:19:42.575Z,29.28
2023-04-18T04:20:42.092Z,28.86
2023-04-18T04:21:42.117Z,28.58
2023-04-18T04:22:42.142Z,30.03
2023-04-18T04:23:42.195Z,28.99
2023-04-18T04:24:43.035Z,27.20
2023-04-18T04:25:42.233Z,27.19
2023-04-18T04:26:42.253Z,31.01
2023-04-18T04:27:42.283Z,28.55
2023-04-18T04:28:42.346Z,31.75
2023-04-18T04:29:42.347Z,29.02
2023-04-18T04:30:42.386Z,29.84
2023-04-18T04:31:42.473Z,26.89
2023-04-18T04:32:42.430Z,30.05
2023-04-18T04:33:42.440Z,30.75
2023-04-18T04:34:42.487Z,31.35
2023-04-18T04:35:42.512Z,30.14
2023-04-18T04:36:42.527Z,29.38
2023-04-18T04:37:42.556Z,29.58
2023-04-18T04:38:42.561Z,28.76
2023-04-18T04:39:42.635Z,28.13
2023-04-18T04:40:42.635Z,27.01
2023-04-18T04:41:42.674Z,26.90
2023-04-18T04:42:42.731Z,29.21
2023-04-18T04:43:43.546Z,27.87
2023-04-18T04:44:42.796Z,27.40
2023-04-18T04:45:42.763Z,27.85
2023-04-18T04:46:42.772Z,26.92
2023-04-18T04:47:42.872Z,27.26
2023-04-18T04:48:42.841Z,27.59
2023-04-18T04:49:42.876Z,29.71
2023-04-18T04:50:42.891Z,28.53
2023-04-18T04:51:42.973Z,28.83
2023-04-18T04:52:42.960Z,26.96
2023-04-18T04:53:42.993Z,28.20
2023-04-18T04:54:43.025Z,27.55
2023-04-18T04:55:43.018Z,26.25
2023-04-18T04:56:43.034Z,29.13
2023-04-18T04:57:43.109Z,28.90
2023-04-18T04:58:43.072Z,26.39
2023-04-18T04:59:43.149Z,29.47
2023-04-18T05:00:43.138Z,27.71
2023-04-18T05:01:43.187Z,26.97
2023-04-18T05:02:43.310Z,25.93
2023-04-18T05:03:43.526Z,27.92
2023-04-18T05:04:43.338Z,26.48
2023-04-18T05:05:43.260Z,27.20
2023-04-18T05:06:43.293Z,29.81
2023-04-18T05:07:43.310Z,28.83
2023-04-18T05:08:43.345Z,26.81
2023-04-18T05:09:43.540Z,28.83
2023-04-18T05:10:43.485Z,30.42
2023-04-18T05:11:43.447Z,28.47
2023-04-18T05:12:43.473Z,27.95
2023-04-18T05:13:43.489Z,27.11
2023-04-18T05:14:43.534Z,27.42
2023-04-18T05:15:43.550Z,27.92
2023-04-18T05:16:43.562Z,29.89
2023-04-18T05:17:43.711Z,28.69
2023-04-18T05:18:44.542Z,30.74
2023-04-18T05:19:43.680Z,28.31
2023-04-18T05:20:43.712Z,28.57
2023-04-18T05:21:43.741Z,25.43
2023-04-18T05:22:44.057Z,28.13
2023-04-18T05:23:44.077Z,27.57
2023-04-18T05:24:43.825Z,29.15
2023-04-18T05:25:43.811Z,26.87
2023-04-18T05:26:43.866Z,26.69
2023-04-18T05:27:43.897Z,28.07
2023-04-18T05:28:44.075Z,30.86
2023-04-18T05:29:44.171Z,27.42
2023-04-18T05:30:43.999Z,28.61
2023-04-18T05:31:43.994Z,25.79
2023-04-18T05:32:44.002Z,26.43
2023-04-18T05:33:43.979Z,28.12
2023-04-18T05:34:44.075Z,26.97
2023-04-18T05:35:44.120Z,29.06
2023-04-18T05:36:43.971Z,25.96
2023-04-18T05:37:43.984Z,31.81
2023-04-18T05:38:44.017Z,30.30
2023-04-18T05:39:44.559Z,31.09
2023-04-18T05:40:44.128Z,35.99
2023-04-18T05:41:44.167Z,39.63
2023-04-18T05:42:44.238Z,42.15
2023-04-18T05:43:51.055Z,47.34
2023-04-18T05:44:45.554Z,47.50
2023-04-18T05:45:44.259Z,48.15
2023-04-18T05:46:44.323Z,49.68
2023-04-18T05:47:44.267Z,53.70
2023-04-18T05:48:44.273Z,55.57
2023-04-18T05:49:44.556Z,53.24
2023-04-18T05:50:44.633Z,67.25
2023-04-18T05:51:44.214Z,67.77
2023-04-18T05:52:44.238Z,68.69
2023-04-18T05:53:44.554Z,67.75
2023-04-18T05:54:44.265Z,78.19
2023-04-18T05:55:44.215Z,78.15
2023-04-18T05:56:44.227Z,80.03
2023-04-18T05:57:44.243Z,81.65
2023-04-18T05:58:44.245Z,83.37
2023-04-18T05:59:44.270Z,87.36
2023-04-18T06:00:44.263Z,94.15
2023-04-18T06:01:44.238Z,95.04
2023-04-18T06:02:44.325Z,96.89
2023-04-18T06:03:44.531Z,100.38
2023-04-18T06:04:44.470Z,101.02
2023-04-18T06:05:44.431Z,102.43
2023-04-18T06:06:44.298Z,107.23
2023-04-18T06:07:44.342Z,107.67
2023-04-18T06:08:44.357Z,107.89
2023-04-18T06:09:44.415Z,110.30
2023-04-18T06:10:44.493Z,112.79
2023-04-18T06:11:44.516Z,116.15
2023-04-18T06:12:44.596Z,115.77
2023-04-18T06:13:44.683Z,120.12
2023-04-18T06:14:44.743Z,119.74
2023-04-18T06:15:44.866Z,121.30
2023-04-18T06:16:44.853Z,123.73
2023-04-18T06:17:44.962Z,127.34
2023-04-18T06:18:45.029Z,123.43
2023-04-18T06:19:44.995Z,123.02
2023-04-18T06:20:45.042Z,122.22
2023-04-18T06:21:45.108Z,124.14
2023-04-18T06:22:45.154Z,130.09
2023-04-18T06:23:45.198Z,129.59
2023-04-18T06:24:45.320Z,126.92
2023-04-18T06:25:45.342Z,128.57
2023-04-18T06:26:45.367Z,133.35
2023-04-18T06:27:45.448Z,130.88
2023-04-18T06:28:45.471Z,136.02
2023-04-18T06:29:45.476Z,137.49
2023-04-18T06:30:45.556Z,137.42
2023-04-18T06:31:45.612Z,138.28
2023-04-18T06:32:45.634Z,140.84
2023-04-18T06:33:45.678Z,137.60
2023-04-18T06:34:45.657Z,138.55
2023-04-18T06:35:45.676Z,140.02
2023-04-18T06:36:45.722Z,144.26
2023-04-18T06:37:45.769Z,286.78
2023-04-18T06:38:46.089Z,263.09
2023-04-18T06:39:45.814Z,214.06
2023-04-18T06:40:46.104Z,191.34
2023-04-18T06:41:45.869Z,168.39
2023-04-18T06:42:45.888Z,156.76
2023-04-18T06:43:59.700Z,179.19
2023-04-18T06:44:46.937Z,174.51
2023-04-18T06:45:46.149Z,166.44
2023-04-18T06:46:46.604Z,161.80
2023-04-18T06:47:45.918Z,158.03
2023-04-18T06:48:45.864Z,154.43
2023-04-18T06:49:45.860Z,150.62
2023-04-18T06:50:46.625Z,150.67
2023-04-18T06:51:45.890Z,148.64
2023-04-18T06:52:45.848Z,146.72
2023-04-18T06:53:45.854Z,145.02
2023-04-18T06:54:45.833Z,143.47
2023-04-18T06:55:45.797Z,142.06
2023-04-18T06:56:45.801Z,141.25
2023-04-18T06:57:45.803Z,138.09
2023-04-18T06:58:45.800Z,145.17
2023-04-18T06:59:45.808Z,151.37
2023-04-18T07:00:46.110Z,154.16
2023-04-18T07:01:46.586Z,159.64
2023-04-18T07:02:45.998Z,159.36
2023-04-18T07:03:46.177Z,162.62
2023-04-18T07:04:45.936Z,164.73
2023-04-18T07:05:46.092Z,167.47
2023-04-18T07:06:45.995Z,166.23
2023-04-18T07:07:45.946Z,166.20
2023-04-18T07:08:45.976Z,165.55
2023-04-18T07:09:46.000Z,165.64
2023-04-18T07:10:46.056Z,164.51
2023-04-18T07:11:46.012Z,163.67
2023-04-18T07:12:46.024Z,163.80
2023-04-18T07:13:46.062Z,162.71
2023-04-18T07:14:46.074Z,163.64
2023-04-18T07:15:46.109Z,162.98
2023-04-18T07:16:46.121Z,158.87
2023-04-18T07:17:46.187Z,160.27
2023-04-18T07:18:46.196Z,161.40
2023-04-18T07:19:46.263Z,159.62
2023-04-18T07:20:46.269Z,156.25
2023-04-18T07:21:46.367Z,158.39
2023-04-18T07:22:46.322Z,160.59
2023-04-18T07:23:46.319Z,161.34
2023-04-18T07:24:46.383Z,159.56
2023-04-18T07:25:46.357Z,161.49
2023-04-18T07:26:46.354Z,160.91
2023-04-18T07:27:46.403Z,158.89
2023-04-18T07:28:46.367Z,159.74
2023-04-18T07:29:46.384Z,161.80
2023-04-18T07:30:46.445Z,161.62
2023-04-18T07:31:46.416Z,157.03
2023-04-18T07:32:46.482Z,162.41
2023-04-18T07:33:47.221Z,161.69
2023-04-18T07:34:46.421Z,159.95
2023-04-18T07:35:46.432Z,156.96
2023-04-18T07:36:46.487Z,158.46
2023-04-18T07:37:46.432Z,155.69
2023-04-18T07:38:46.473Z,153.73
2023-04-18T07:39:46.570Z,155.27
2023-04-18T07:40:46.605Z,154.33
2023-04-18T07:41:46.614Z,154.22
2023-04-18T07:42:46.577Z,152.59
2023-04-18T07:43:46.635Z,154.35
2023-04-18T07:44:46.611Z,153.34
2023-04-18T07:45:46.612Z,158.24
2023-04-18T07:46:46.606Z,153.09
2023-04-18T07:47:46.686Z,148.20
2023-04-18T07:48:46.620Z,149.39
2023-04-18T07:49:46.667Z,154.04
2023-04-18T07:50:47.128Z,146.56
2023-04-18T07:51:46.655Z,145.66
2023-04-18T07:52:46.655Z,141.04
2023-04-18T07:53:46.625Z,132.13
2023-04-18T07:54:46.622Z,133.86
2023-04-18T07:55:47.145Z,129.38
2023-04-18T07:56:46.656Z,133.46
2023-04-18T07:57:47.629Z,129.50
2023-04-18T07:58:46.695Z,127.55
2023-04-18T07:59:47.612Z,124.90
2023-04-18T08:00:47.135Z,119.92
2023-04-18T08:01:46.703Z,119.58
2023-04-18T08:02:46.864Z,117.12
2023-04-18T08:03:46.801Z,112.29
2023-04-18T08:04:46.867Z,115.21
2023-04-18T08:05:46.798Z,112.88
2023-04-18T08:06:46.880Z,109.41
2023-04-18T08:07:46.995Z,114.38
2023-04-18T08:08:47.096Z,100.92
2023-04-18T08:09:47.218Z,101.45
2023-04-18T08:10:47.528Z,99.04
2023-04-18T08:11:47.348Z,95.27
2023-04-18T08:12:47.284Z,91.85
2023-04-18T08:13:47.306Z,90.83
2023-04-18T08:14:47.285Z,87.83
2023-04-18T08:15:47.284Z,89.23
2023-04-18T08:16:47.431Z,84.79
2023-04-18T08:17:47.491Z,83.88
2023-04-18T08:18:47.494Z,74.75
2023-04-18T08:19:47.501Z,63.60
2023-04-18T08:20:47.462Z,62.40
2023-04-18T08:21:47.462Z,73.53
2023-04-18T08:23:05.139Z,107.62
2023-04-18T08:23:48.531Z,108.09
2023-04-18T08:25:03.376Z,108.89
2023-04-18T08:25:49.171Z,108.04
2023-04-18T08:26:47.442Z,108.54
2023-04-18T08:27:47.411Z,108.02
2023-04-18T08:28:47.446Z,103.99
2023-04-18T08:29:47.481Z,97.17
2023-04-18T08:30:47.626Z,93.69
2023-04-18T08:31:47.500Z,95.72
2023-04-18T08:32:47.424Z,90.05
2023-04-18T08:33:47.397Z,87.65
2023-04-18T08:34:47.624Z,85.42
2023-04-18T08:35:47.432Z,85.01
2023-04-18T08:36:47.367Z,83.97
2023-04-18T08:37:47.358Z,78.65
2023-04-18T08:38:47.369Z,78.75
2023-04-18T08:39:47.457Z,77.34
2023-04-18T08:40:47.443Z,79.94
2023-04-18T08:41:48.139Z,85.18
2023-04-18T08:42:47.499Z,88.29
2023-04-18T08:43:47.511Z,89.49
2023-04-18T08:44:47.554Z,92.26
2023-04-18T08:45:47.625Z,94.07
2023-04-18T08:46:47.637Z,93.61
2023-04-18T08:47:47.677Z,97.13
2023-04-18T08:48:47.695Z,95.73
2023-04-18T08:49:47.822Z,98.05
2023-04-18T08:50:47.876Z,104.79
2023-04-18T08:51:48.119Z,105.22
2023-04-18T08:52:47.876Z,107.57
2023-04-18T08:53:47.949Z,110.26
2023-04-18T08:54:48.132Z,116.11
2023-04-18T08:55:48.194Z,114.74
2023-04-18T08:56:48.256Z,139.54
2023-04-18T08:57:48.204Z,155.61
2023-04-18T08:58:48.205Z,160.92
2023-04-18T08:59:50.814Z,170.54
2023-04-18T09:00:48.266Z,177.96
2023-04-18T09:01:48.250Z,184.68
2023-04-18T09:02:48.302Z,191.00
2023-04-18T09:03:48.241Z,190.00
2023-04-18T09:04:48.194Z,186.77
2023-04-18T09:05:48.197Z,190.64
2023-04-18T09:06:48.207Z,191.63
2023-04-18T09:07:48.194Z,189.45
2023-04-18T09:08:48.205Z,191.59
2023-04-18T09:09:48.184Z,195.57
2023-04-18T09:10:48.287Z,195.71
2023-04-18T09:11:48.169Z,193.38
2023-04-18T09:12:48.178Z,197.83
2023-04-18T09:13:48.229Z,196.52
2023-04-18T09:14:48.340Z,198.94
2023-04-18T09:15:48.210Z,197.15
2023-04-18T09:16:48.218Z,201.45
2023-04-18T09:17:48.190Z,201.66
2023-04-18T09:18:48.149Z,198.88
2023-04-18T09:19:48.150Z,200.20
2023-04-18T09:20:48.169Z,200.80
2023-04-18T09:21:48.658Z,202.41
2023-04-18T09:22:48.152Z,195.65
2023-04-18T09:23:48.116Z,192.64
2023-04-18T09:24:48.083Z,192.93
2023-04-18T09:25:48.103Z,191.65
2023-04-18T09:26:48.053Z,190.69
2023-04-18T09:27:48.115Z,189.73
2023-04-18T09:28:48.065Z,190.83
2023-04-18T09:29:48.035Z,196.53
2023-04-18T09:30:48.043Z,195.39
2023-04-18T09:31:48.045Z,193.42
2023-04-18T09:32:48.171Z,192.61
2023-04-18T09:33:48.008Z,190.38
2023-04-18T09:34:48.019Z,186.35
2023-04-18T09:35:48.149Z,155.81
2023-04-18T09:36:48.081Z,144.01
2023-04-18T09:37:48.001Z,136.86
2023-04-18T09:38:48.028Z,134.05
2023-04-18T09:39:47.996Z,132.02
2023-04-18T09:40:47.972Z,128.92
2023-04-18T09:41:47.970Z,129.30
2023-04-18T09:42:47.998Z,124.45
2023-04-18T09:43:47.951Z,126.40
2023-04-18T09:44:48.036Z,122.76
2023-04-18T09:45:47.972Z,122.94
2023-04-18T09:46:48.119Z,123.69
2023-04-18T09:47:48.017Z,84.60
2023-04-18T09:48:47.918Z,57.88
2023-04-18T09:49:47.903Z,14.60
2023-04-18T09:50:48.663Z,34.76
2023-04-18T09:51:48.142Z,50.74
2023-04-18T09:52:47.881Z,45.95
2023-04-18T09:53:48.046Z,36.56
2023-04-18T09:54:48.315Z,22.54
2023-04-18T09:55:47.875Z,21.85
2023-04-18T09:56:47.866Z,35.54
2023-04-18T09:57:47.853Z,47.57
2023-04-18T09:58:47.828Z,47.27
2023-04-18T09:59:47.833Z,22.13
2023-04-18T10:00:47.820Z,40.92
2023-04-18T10:01:47.886Z,41.34
2023-04-18T10:02:47.945Z,38.01
2023-04-18T10:03:47.879Z,38.07
2023-04-18T10:04:47.981Z,43.14
2023-04-18T10:05:47.891Z,41.99
2023-04-18T10:06:47.784Z,37.33
2023-04-18T10:07:47.844Z,33.40
2023-04-18T10:08:47.754Z,33.68
2023-04-18T10:09:47.818Z,34.66
2023-04-18T10:10:48.187Z,39.28
2023-04-18T10:11:47.915Z,27.74
2023-04-18T10:12:47.939Z,26.21
2023-04-18T10:13:48.053Z,31.51
2023-04-18T10:14:48.184Z,26.46
2023-04-18T10:15:48.182Z,33.83
2023-04-18T10:16:50.006Z,30.01
2023-04-18T10:18:02.844Z,38.16
2023-04-18T10:18:49.430Z,38.39
2023-04-18T10:19:48.297Z,38.60
2023-04-18T10:20:48.255Z,39.27
2023-04-18T10:21:48.217Z,39.36
2023-04-18T10:22:48.224Z,42.18
2023-04-18T10:23:48.196Z,39.39
2023-04-18T10:24:48.264Z,36.51
2023-04-18T10:25:48.704Z,35.78
2023-04-18T10:26:48.227Z,36.97
2023-04-18T10:27:48.312Z,40.00
2023-04-18T10:28:48.320Z,45.41
2023-04-18T10:29:48.407Z,55.50
2023-04-18T10:30:48.448Z,60.98
2023-04-18T10:31:48.702Z,61.01
2023-04-18T10:32:48.607Z,63.60
2023-04-18T10:34:00.672Z,72.83
2023-04-18T10:34:49.582Z,73.19
2023-04-18T10:35:48.529Z,74.94
2023-04-18T10:36:48.587Z,80.08
2023-04-18T10:37:48.508Z,89.16
2023-04-18T10:38:48.515Z,103.10
2023-04-18T10:39:48.503Z,112.30
2023-04-18T10:40:48.511Z,116.48
2023-04-18T10:41:49.453Z,120.27
2023-04-18T10:42:48.528Z,126.65
2023-04-18T10:43:48.521Z,132.12
2023-04-18T10:44:48.482Z,138.63
2023-04-18T10:45:48.452Z,141.18
2023-04-18T10:46:48.473Z,146.03
2023-04-18T10:47:48.583Z,153.68
2023-04-18T10:48:48.455Z,153.04
2023-04-18T10:49:48.521Z,159.98
2023-04-18T10:50:48.573Z,163.59
2023-04-18T10:51:48.633Z,165.13
2023-04-18T10:52:48.679Z,168.54
2023-04-18T10:53:48.744Z,174.97
2023-04-18T10:54:48.771Z,178.66
2023-04-18T10:55:48.847Z,183.58
2023-04-18T10:56:48.895Z,186.79
2023-04-18T10:57:48.935Z,190.01
2023-04-18T10:58:48.970Z,192.51
2023-04-18T10:59:48.989Z,195.34
2023-04-18T11:00:49.071Z,200.64
2023-04-18T11:01:49.086Z,201.12
2023-04-18T11:02:49.311Z,205.59
2023-04-18T11:03:49.171Z,208.88
2023-04-18T11:04:49.182Z,211.91
2023-04-18T11:05:49.193Z,211.85
2023-04-18T11:06:49.675Z,216.55
2023-04-18T11:07:49.271Z,218.27
2023-04-18T11:08:49.313Z,222.66
2023-04-18T11:09:49.376Z,225.66
2023-04-18T11:10:49.380Z,227.76
2023-04-18T11:11:49.443Z,230.61
2023-04-18T11:12:49.484Z,235.84
2023-04-18T11:13:49.508Z,239.32
2023-04-18T11:14:49.559Z,241.47
2023-04-18T11:15:49.589Z,241.99
2023-04-18T11:16:49.710Z,242.77
2023-04-18T11:17:49.694Z,245.15
2023-04-18T11:18:49.707Z,243.25
2023-04-18T11:19:49.707Z,244.85
2023-04-18T11:20:49.753Z,242.67
2023-04-18T11:21:49.810Z,245.19
2023-04-18T11:22:49.839Z,245.47
2023-04-18T11:23:49.922Z,242.62
2023-04-18T11:24:49.993Z,243.21
2023-04-18T11:25:49.977Z,239.84
2023-04-18T11:26:50.204Z,238.62
2023-04-18T11:27:50.055Z,235.50
2023-04-18T11:28:50.145Z,234.09
2023-04-18T11:29:50.192Z,232.04
2023-04-18T11:30:50.196Z,230.05
2023-04-18T11:31:50.245Z,228.28
2023-04-18T11:32:50.332Z,224.85
2023-04-18T11:33:50.351Z,220.20
2023-04-18T11:34:50.401Z,217.48
2023-04-18T11:35:50.470Z,215.93
2023-04-18T11:36:50.602Z,212.47
2023-04-18T11:37:50.608Z,206.29
2023-04-18T11:38:50.675Z,204.61
2023-04-18T11:39:50.688Z,202.72
2023-04-18T11:40:50.946Z,198.95
2023-04-18T11:41:50.785Z,193.57
2023-04-18T11:42:50.737Z,190.30
2023-04-18T11:43:50.770Z,189.51
2023-04-18T11:44:50.772Z,183.59
2023-04-18T11:45:50.823Z,181.46
2023-04-18T11:46:50.812Z,178.04
2023-04-18T11:47:50.926Z,173.19
2023-04-18T11:48:50.975Z,171.29
2023-04-18T11:49:50.954Z,165.46
2023-04-18T11:50:50.941Z,120.65
2023-04-18T11:51:50.982Z,101.06
2023-04-18T11:52:50.952Z,89.51
2023-04-18T11:53:50.993Z,85.96
2023-04-18T11:54:51.008Z,95.73
2023-04-18T11:55:51.017Z,70.96
2023-04-18T11:56:51.039Z,74.85
2023-04-18T11:57:51.061Z,47.56
2023-04-18T11:58:51.090Z,8.28
2023-04-18T11:59:51.157Z,0.00
2023-04-18T12:00:51.219Z,17.71
2023-04-18T12:01:51.245Z,34.49
2023-04-18T12:02:51.502Z,36.76
2023-04-18T12:03:51.485Z,44.92
2023-04-18T12:04:51.912Z,52.35
2023-04-18T12:05:51.538Z,51.77
2023-04-18T12:06:51.614Z,61.61
2023-04-18T12:07:51.620Z,67.83
2023-04-18T12:08:53.599Z,50.38
2023-04-18T12:09:51.725Z,45.86
2023-04-18T12:10:51.909Z,38.35
2023-04-18T12:11:51.849Z,29.21
2023-04-18T12:12:51.904Z,48.02
2023-04-18T12:13:51.988Z,17.75
2023-04-18T12:14:52.023Z,29.93
2023-04-18T12:15:52.065Z,32.85
2023-04-18T12:16:52.112Z,21.52
2023-04-18T12:17:52.173Z,36.82
2023-04-18T12:18:52.099Z,42.67
2023-04-18T12:19:52.099Z,66.73
2023-04-18T12:20:52.191Z,43.15
2023-04-18T12:21:52.157Z,10.61
2023-04-18T12:22:52.723Z,15.64
2023-04-18T12:23:52.199Z,40.54
2023-04-18T12:24:52.210Z,52.63
2023-04-18T12:25:52.291Z,72.06
2023-04-18T12:26:52.710Z,77.99
2023-04-18T12:27:52.377Z,78.24
2023-04-18T12:28:52.476Z,72.33
2023-04-18T12:29:52.461Z,79.94
2023-04-18T12:30:52.531Z,24.54
2023-04-18T12:31:54.327Z,0.00
2023-04-18T12:32:52.691Z,0.00
2023-04-18T12:33:52.674Z,25.00
2023-04-18T12:34:52.707Z,49.00
2023-04-18T12:35:52.715Z,64.88
2023-04-18T12:36:52.759Z,43.39
2023-04-18T12:37:52.746Z,27.74
2023-04-18T12:38:52.785Z,25.00
2023-04-18T12:39:52.745Z,57.98
2023-04-18T12:40:52.768Z,67.67
2023-04-18T12:41:52.742Z,21.38
2023-04-18T12:42:53.727Z,14.19
2023-04-18T12:43:52.749Z,18.70
2023-04-18T12:44:52.774Z,24.49